Terminal Aerodrome Forecast
Issued by NWS Blacksburg, VA

Home | Current Version | Previous Version | Text Only | Print | Product List | Glossary On
Versions: 1 2 3 4 5 6 7 8 9 10 11 12 13 14 15 16 17 18 19 20 21 22 23 24 25 26 27 28 29 30 31 32 33 34 35 36 37
000
FTUS41 KRNK 262106 AAA
TAFROA
TAF AMD
KROA 262106Z 2621/2718 VRB03KT P6SM SCT020 OVC035
      TEMPO 2621/2624 BKN020
     FM270000 32004KT P6SM BKN035
     FM270800 31007KT P6SM SCT040
     FM271500 32012G20KT P6SM BKN050=

USA.gov is the U.S. government's official web portal to all federal, state and local government web resources and services.